Wiener Neustadt, Austria
Current Conditions -  °F | °C
As of 10:20 AM on Friday 31 Oct 2014 (Local Time) from LOWW Reporting Station
Haze Haze  
Wind Chill: 43°   Ceiling: 3400
Heat Index: 46°   Visibility: 3mi
Dew Point: 43°   Wind: 7mph
Humidity: 87%   Direction: 350°N
Pressure: 30.36"   Gusts: NA
Location:  47.82°N, 16.24°E
Report Text: LOWW 310820Z 35006KT 5000 BR BKN034 08/06 Q1028 NOSIG
Loading
Personal Weather Stations






























Interactive Weather Map
Tropical Storm Tracking
New forecast layout! Learn more

10-Day Weather Forecast

Advertisements
Track Severe Weather on mobile